Flight Briefing for CPX252

Departure Arrival
Washington Dulles International Airport (KIAD)
Click to view FAA NOTAMS
Chicago/Rockford International Airport (KRFD)
Click to view FAA NOTAMS
Departure Time Arrival Time
N/A N/A
Aircraft Distance
B767-300BDSF 626nm
Departure METAR Arrival METAR
KIAD 221252Z 32014G20KT 10SM BKN038 OVC050 06/M01 A2966 RMK AO2 PK WND 30035/1156 SLP044 T00611011 KRFD 221254Z 34003KT 10SM CLR 02/M01 A3008 RMK AO2 SLP191 T00221011
Suggested Route
BUNZZ3 RAMAY Q72 HACKS J149 FWA V340 OXI JOT


View recent IFR Routes data
Notes



Charts and Procedures

Charts for KIAD
No chart available
Charts for KRFD
No chart available

Windy.com Weather Map